TNCA/AUA METAR and TAF weather

Enter ICAO airport designator
Station Type Date Time Source
TNCA METAR 2019/05/27 09:00 UTC NOAA

TNCA 270900Z 10015KT 9999 FEW015 27/24 Q1011 NOSIG


Station Type Date Time Source
TNCA Decoded METAR 2019/05/27 09:00 UTC NOAA

Queen Beatrix Airport, Aruba (TNCA) 12-30N 070-01W 33M
May 27, 2019 - 05:00 AM EDT / 2019.05.27 0900 UTC
Wind: from the E (100 degrees) at 17 MPH (15 KT):0
Visibility: greater than 7 mile(s):0
Sky conditions: mostly clear
Temperature: 80 F (27 C)
Dew Point: 75 F (24 C)
Relative Humidity: 83%
Pressure (altimeter): 29.85 in. Hg (1011 hPa)
ob: TNCA 270900Z 10015KT 9999 FEW015 27/24 Q1011 NOSIG
cycle: 9

Station Type Date Time Source
TNCA TAF 2019/05/27 06:03 UTC NOAA

TAF TNCA 270400Z 2706/2806 08014KT 9999 SCT018

Example: see airport list